sensor_id;sensor_type;location;lat;lon;timestamp;temperature;humidity
51922;DHT22;37948;53.260;6.394;2023-04-01T00:00:06;10.20;99.90
51922;DHT22;37948;53.260;6.394;2023-04-01T00:02:32;10.20;99.90
51922;DHT22;37948;53.260;6.394;2023-04-01T00:04:58;10.20;99.90
51922;DHT22;37948;53.260;6.394;2023-04-01T00:07:23;10.20;99.90
51922;DHT22;37948;53.260;6.394;2023-04-01T00:09:49;10.20;99.90
51922;DHT22;37948;53.260;6.394;2023-04-01T00:12:15;10.20;99.90
51922;DHT22;37948;53.260;6.394;2023-04-01T00:14:40;10.30;99.90
51922;DHT22;37948;53.260;6.394;2023-04-01T00:17:06;10.30;99.90
51922;DHT22;37948;53.260;6.394;2023-04-01T00:19:31;10.30;99.90
51922;DHT22;37948;53.260;6.394;2023-04-01T00:21:58;10.20;99.90
51922;DHT22;37948;53.260;6.394;2023-04-01T00:24:24;10.20;99.90
51922;DHT22;37948;53.260;6.394;2023-04-01T00:26:50;10.20;99.90
51922;DHT22;37948;53.260;6.394;2023-04-01T00:29:15;10.20;99.90
51922;DHT22;37948;53.260;6.394;2023-04-01T00:31:41;10.20;99.90
51922;DHT22;37948;53.260;6.394;2023-04-01T00:34:07;10.20;99.90
51922;DHT22;37948;53.260;6.394;2023-04-01T00:36:32;10.20;99.90
51922;DHT22;37948;53.260;6.394;2023-04-01T00:38:58;10.20;99.90
51922;DHT22;37948;53.260;6.394;2023-04-01T00:41:27;10.20;99.90
51922;DHT22;37948;53.260;6.394;2023-04-01T00:44:15;10.20;99.90
51922;DHT22;37948;53.260;6.394;2023-04-01T00:46:41;10.20;99.90
51922;DHT22;37948;53.260;6.394;2023-04-01T00:49:07;10.20;99.90
51922;DHT22;37948;53.260;6.394;2023-04-01T00:51:34;10.20;99.90
51922;DHT22;37948;53.260;6.394;2023-04-01T00:54:02;10.20;99.90
51922;DHT22;37948;53.260;6.394;2023-04-01T00:56:37;10.20;99.90
51922;DHT22;37948;53.260;6.394;2023-04-01T00:59:09;10.20;99.90
51922;DHT22;37948;53.260;6.394;2023-04-01T01:01:36;10.20;99.90
51922;DHT22;37948;53.260;6.394;2023-04-01T01:04:02;10.20;99.90
51922;DHT22;37948;53.260;6.394;2023-04-01T01:06:56;10.20;99.90
51922;DHT22;37948;53.260;6.394;2023-04-01T01:12:18;10.20;99.90
51922;DHT22;37948;53.260;6.394;2023-04-01T01:14:54;10.20;99.90
51922;DHT22;37948;53.260;6.394;2023-04-01T01:25:58;10.20;99.90
51922;DHT22;37948;53.260;6.394;2023-04-01T01:28:29;10.20;99.90
51922;DHT22;37948;53.260;6.394;2023-04-01T01:31:14;10.20;99.90
51922;DHT22;37948;53.260;6.394;2023-04-01T01:36:20;10.10;99.90
51922;DHT22;37948;53.260;6.394;2023-04-01T01:38:48;10.10;99.90
51922;DHT22;37948;53.260;6.394;2023-04-01T01:41:16;10.10;99.90
51922;DHT22;37948;53.260;6.394;2023-04-01T01:43:46;10.10;99.90
51922;DHT22;37948;53.260;6.394;2023-04-01T01:46:16;10.10;99.90
51922;DHT22;37948;53.260;6.394;2023-04-01T01:48:43;10.10;99.90
51922;DHT22;37948;53.260;6.394;2023-04-01T01:51:10;10.20;99.90
51922;DHT22;37948;53.260;6.394;2023-04-01T01:53:36;10.10;99.90
51922;DHT22;37948;53.260;6.394;2023-04-01T01:56:04;10.10;99.90
51922;DHT22;37948;53.260;6.394;2023-04-01T01:58:36;10.10;99.90
51922;DHT22;37948;53.260;6.394;2023-04-01T02:01:13;10.10;99.90
51922;DHT22;37948;53.260;6.394;2023-04-01T02:03:41;10.10;99.90
51922;DHT22;37948;53.260;6.394;2023-04-01T02:06:10;10.10;99.90
51922;DHT22;37948;53.260;6.394;2023-04-01T02:08:43;10.10;99.90
51922;DHT22;37948;53.260;6.394;2023-04-01T02:11:12;10.10;99.90
51922;DHT22;37948;53.260;6.394;2023-04-01T02:16:24;10.10;99.90
51922;DHT22;37948;53.260;6.394;2023-04-01T02:18:51;10.10;99.90
51922;DHT22;37948;53.260;6.394;2023-04-01T02:21:21;10.10;99.90
51922;DHT22;37948;53.260;6.394;2023-04-01T02:23:49;10.10;99.90
51922;DHT22;37948;53.260;6.394;2023-04-01T02:26:16;10.10;99.90
51922;DHT22;37948;53.260;6.394;2023-04-01T02:28:42;10.10;99.90
51922;DHT22;37948;53.260;6.394;2023-04-01T02:31:11;10.00;99.90
51922;DHT22;37948;53.260;6.394;2023-04-01T02:33:38;10.10;99.90
51922;DHT22;37948;53.260;6.394;2023-04-01T02:36:05;10.10;99.90
51922;DHT22;37948;53.260;6.394;2023-04-01T02:38:31;10.10;99.90
51922;DHT22;37948;53.260;6.394;2023-04-01T02:40:59;10.00;99.90
51922;DHT22;37948;53.260;6.394;2023-04-01T02:43:26;10.10;99.90
51922;DHT22;37948;53.260;6.394;2023-04-01T02:45:51;10.10;99.90
51922;DHT22;37948;53.260;6.394;2023-04-01T02:48:17;10.10;99.90
51922;DHT22;37948;53.260;6.394;2023-04-01T02:50:43;10.10;99.90
51922;DHT22;37948;53.260;6.394;2023-04-01T02:53:09;10.00;99.90
51922;DHT22;37948;53.260;6.394;2023-04-01T02:55:34;10.10;99.90
51922;DHT22;37948;53.260;6.394;2023-04-01T02:58:00;10.10;99.90
51922;DHT22;37948;53.260;6.394;2023-04-01T03:00:26;10.10;99.90
51922;DHT22;37948;53.260;6.394;2023-04-01T03:02:52;10.10;99.90
51922;DHT22;37948;53.260;6.394;2023-04-01T03:05:18;10.10;99.90
51922;DHT22;37948;53.260;6.394;2023-04-01T03:07:44;10.00;99.90
51922;DHT22;37948;53.260;6.394;2023-04-01T03:10:10;10.10;99.90
51922;DHT22;37948;53.260;6.394;2023-04-01T03:12:36;10.00;99.90
51922;DHT22;37948;53.260;6.394;2023-04-01T03:15:01;10.00;99.90
51922;DHT22;37948;53.260;6.394;2023-04-01T03:17:27;10.00;99.90
51922;DHT22;37948;53.260;6.394;2023-04-01T03:19:52;10.00;99.90
51922;DHT22;37948;53.260;6.394;2023-04-01T03:22:18;10.00;99.90
51922;DHT22;37948;53.260;6.394;2023-04-01T03:24:48;10.00;99.90
51922;DHT22;37948;53.260;6.394;2023-04-01T03:27:14;10.00;99.90
51922;DHT22;37948;53.260;6.394;2023-04-01T03:29:40;10.00;99.90
51922;DHT22;37948;53.260;6.394;2023-04-01T03:32:06;10.00;99.90
51922;DHT22;37948;53.260;6.394;2023-04-01T03:34:32;10.00;99.90
51922;DHT22;37948;53.260;6.394;2023-04-01T03:36:58;10.00;99.90
51922;DHT22;37948;53.260;6.394;2023-04-01T03:39:24;10.00;99.90
51922;DHT22;37948;53.260;6.394;2023-04-01T03:41:50;10.00;99.90
51922;DHT22;37948;53.260;6.394;2023-04-01T03:44:16;10.00;99.90
51922;DHT22;37948;53.260;6.394;2023-04-01T03:46:41;10.00;99.90
51922;DHT22;37948;53.260;6.394;2023-04-01T03:49:09;10.00;99.90
51922;DHT22;37948;53.260;6.394;2023-04-01T03:51:42;10.00;99.90
51922;DHT22;37948;53.260;6.394;2023-04-01T03:54:09;10.00;99.90
51922;DHT22;37948;53.260;6.394;2023-04-01T03:56:35;10.00;99.90
51922;DHT22;37948;53.260;6.394;2023-04-01T03:59:02;10.00;99.90
51922;DHT22;37948;53.260;6.394;2023-04-01T04:01:28;10.00;99.90
51922;DHT22;37948;53.260;6.394;2023-04-01T04:03:55;10.00;99.90
51922;DHT22;37948;53.260;6.394;2023-04-01T04:06:22;9.90;99.90
51922;DHT22;37948;53.260;6.394;2023-04-01T04:08:48;9.90;99.90
51922;DHT22;37948;53.260;6.394;2023-04-01T04:11:14;9.90;99.90
51922;DHT22;37948;53.260;6.394;2023-04-01T04:13:40;9.90;99.90
51922;DHT22;37948;53.260;6.394;2023-04-01T04:16:06;9.90;99.90
51922;DHT22;37948;53.260;6.394;2023-04-01T04:18:32;9.90;99.90
51922;DHT22;37948;53.260;6.394;2023-04-01T04:20:57;9.90;99.90
51922;DHT22;37948;53.260;6.394;2023-04-01T04:23:23;9.90;99.90
51922;DHT22;37948;53.260;6.394;2023-04-01T04:28:20;10.00;99.90
51922;DHT22;37948;53.260;6.394;2023-04-01T04:30:46;9.90;99.90
51922;DHT22;37948;53.260;6.394;2023-04-01T04:33:12;9.90;99.90
51922;DHT22;37948;53.260;6.394;2023-04-01T04:35:37;9.90;99.90
51922;DHT22;37948;53.260;6.394;2023-04-01T04:38:03;9.90;99.90
51922;DHT22;37948;53.260;6.394;2023-04-01T04:40:28;10.00;99.90
51922;DHT22;37948;53.260;6.394;2023-04-01T04:42:54;9.90;99.90
51922;DHT22;37948;53.260;6.394;2023-04-01T04:45:20;9.90;99.90
51922;DHT22;37948;53.260;6.394;2023-04-01T04:47:45;9.90;99.90
51922;DHT22;37948;53.260;6.394;2023-04-01T04:50:11;9.90;99.90
51922;DHT22;37948;53.260;6.394;2023-04-01T04:52:37;9.90;99.90
51922;DHT22;37948;53.260;6.394;2023-04-01T04:55:03;9.90;99.90
51922;DHT22;37948;53.260;6.394;2023-04-01T04:57:28;9.90;99.90
51922;DHT22;37948;53.260;6.394;2023-04-01T04:59:54;9.90;99.90
51922;DHT22;37948;53.260;6.394;2023-04-01T05:02:19;9.90;99.90
51922;DHT22;37948;53.260;6.394;2023-04-01T05:04:45;9.90;99.90
51922;DHT22;37948;53.260;6.394;2023-04-01T05:07:11;9.90;99.90
51922;DHT22;37948;53.260;6.394;2023-04-01T05:09:36;9.90;99.90
51922;DHT22;37948;53.260;6.394;2023-04-01T05:12:02;9.90;99.90
51922;DHT22;37948;53.260;6.394;2023-04-01T05:14:28;9.90;99.90
51922;DHT22;37948;53.260;6.394;2023-04-01T05:16:53;9.90;99.90
51922;DHT22;37948;53.260;6.394;2023-04-01T05:19:20;9.90;99.90
51922;DHT22;37948;53.260;6.394;2023-04-01T05:21:45;9.90;99.90
51922;DHT22;37948;53.260;6.394;2023-04-01T05:24:11;9.90;99.90
51922;DHT22;37948;53.260;6.394;2023-04-01T05:26:37;9.90;99.90
51922;DHT22;37948;53.260;6.394;2023-04-01T05:29:04;9.90;99.90
51922;DHT22;37948;53.260;6.394;2023-04-01T05:31:30;9.90;99.90
51922;DHT22;37948;53.260;6.394;2023-04-01T05:33:56;9.90;99.90
51922;DHT22;37948;53.260;6.394;2023-04-01T05:36:22;9.90;99.90
51922;DHT22;37948;53.260;6.394;2023-04-01T05:38:48;9.90;99.90
51922;DHT22;37948;53.260;6.394;2023-04-01T05:41:14;9.90;99.90
51922;DHT22;37948;53.260;6.394;2023-04-01T05:43:41;9.90;99.90
51922;DHT22;37948;53.260;6.394;2023-04-01T05:46:07;9.90;99.90
51922;DHT22;37948;53.260;6.394;2023-04-01T05:48:34;9.90;99.90
51922;DHT22;37948;53.260;6.394;2023-04-01T05:51:01;9.90;99.90
51922;DHT22;37948;53.260;6.394;2023-04-01T05:53:26;9.90;99.90
51922;DHT22;37948;53.260;6.394;2023-04-01T05:55:52;9.90;99.90
51922;DHT22;37948;53.260;6.394;2023-04-01T05:58:17;9.90;99.90
51922;DHT22;37948;53.260;6.394;2023-04-01T06:00:43;9.90;99.90
51922;DHT22;37948;53.260;6.394;2023-04-01T06:03:09;9.90;99.90
51922;DHT22;37948;53.260;6.394;2023-04-01T06:05:43;9.90;99.90
51922;DHT22;37948;53.260;6.394;2023-04-01T06:08:14;10.00;99.90
51922;DHT22;37948;53.260;6.394;2023-04-01T06:14:07;10.00;99.90
51922;DHT22;37948;53.260;6.394;2023-04-01T06:16:39;10.00;99.90
51922;DHT22;37948;53.260;6.394;2023-04-01T06:19:27;10.00;99.90
51922;DHT22;37948;53.260;6.394;2023-04-01T06:27:25;10.00;99.90
51922;DHT22;37948;53.260;6.394;2023-04-01T06:44:32;10.30;99.90
51922;DHT22;37948;53.260;6.394;2023-04-01T06:55:42;10.40;99.90
51922;DHT22;37948;53.260;6.394;2023-04-01T06:59:15;10.40;99.90
51922;DHT22;37948;53.260;6.394;2023-04-01T07:01:39;10.40;99.90
51922;DHT22;37948;53.260;6.394;2023-04-01T07:06:57;10.40;99.90
51922;DHT22;37948;53.260;6.394;2023-04-01T07:09:32;10.40;99.90
51922;DHT22;37948;53.260;6.394;2023-04-01T07:12:02;10.50;99.90
51922;DHT22;37948;53.260;6.394;2023-04-01T07:14:32;10.50;99.90
51922;DHT22;37948;53.260;6.394;2023-04-01T07:17:00;10.50;99.90
51922;DHT22;37948;53.260;6.394;2023-04-01T07:19:45;10.50;99.90
51922;DHT22;37948;53.260;6.394;2023-04-01T07:24:47;10.60;99.90
51922;DHT22;37948;53.260;6.394;2023-04-01T07:27:14;10.70;99.90
51922;DHT22;37948;53.260;6.394;2023-04-01T07:29:40;10.60;99.90
51922;DHT22;37948;53.260;6.394;2023-04-01T07:35:34;10.70;99.90
51922;DHT22;37948;53.260;6.394;2023-04-01T07:41:19;10.70;99.90
51922;DHT22;37948;53.260;6.394;2023-04-01T07:43:55;10.70;99.90
51922;DHT22;37948;53.260;6.394;2023-04-01T07:49:16;10.70;99.90
51922;DHT22;37948;53.260;6.394;2023-04-01T07:51:55;10.70;99.90
51922;DHT22;37948;53.260;6.394;2023-04-01T07:54:33;10.70;99.90
51922;DHT22;37948;53.260;6.394;2023-04-01T08:07:37;10.80;99.90
51922;DHT22;37948;53.260;6.394;2023-04-01T08:10:22;10.90;99.90
51922;DHT22;37948;53.260;6.394;2023-04-01T08:13:18;10.90;99.90
51922;DHT22;37948;53.260;6.394;2023-04-01T08:21:25;11.00;99.90
51922;DHT22;37948;53.260;6.394;2023-04-01T08:23:56;11.00;99.90
51922;DHT22;37948;53.260;6.394;2023-04-01T08:26:39;11.10;99.90
51922;DHT22;37948;53.260;6.394;2023-04-01T08:29:16;11.10;99.90
51922;DHT22;37948;53.260;6.394;2023-04-01T08:31:55;11.10;99.90
51922;DHT22;37948;53.260;6.394;2023-04-01T08:34:27;11.20;99.90
51922;DHT22;37948;53.260;6.394;2023-04-01T08:37:14;11.20;99.90
51922;DHT22;37948;53.260;6.394;2023-04-01T08:39:53;11.20;99.90
51922;DHT22;37948;53.260;6.394;2023-04-01T08:45:48;11.20;99.90
51922;DHT22;37948;53.260;6.394;2023-04-01T08:51:25;11.00;99.90
51922;DHT22;37948;53.260;6.394;2023-04-01T08:56:49;11.00;99.90
51922;DHT22;37948;53.260;6.394;2023-04-01T09:10:27;11.10;99.90
51922;DHT22;37948;53.260;6.394;2023-04-01T09:24:31;11.00;99.90
51922;DHT22;37948;53.260;6.394;2023-04-01T09:27:25;10.90;99.90
51922;DHT22;37948;53.260;6.394;2023-04-01T09:35:48;10.90;99.90
51922;DHT22;37948;53.260;6.394;2023-04-01T09:38:22;10.80;99.90
51922;DHT22;37948;53.260;6.394;2023-04-01T09:41:02;10.80;99.90
51922;DHT22;37948;53.260;6.394;2023-04-01T09:52:32;11.00;99.90
51922;DHT22;37948;53.260;6.394;2023-04-01T10:03:37;10.80;99.90
51922;DHT22;37948;53.260;6.394;2023-04-01T10:09:38;10.90;99.90
51922;DHT22;37948;53.260;6.394;2023-04-01T10:20:59;10.80;99.90
51922;DHT22;37948;53.260;6.394;2023-04-01T10:32:48;10.60;99.90
51922;DHT22;37948;53.260;6.394;2023-04-01T10:38:01;10.50;99.90
51922;DHT22;37948;53.260;6.394;2023-04-01T10:43:50;10.50;99.90
51922;DHT22;37948;53.260;6.394;2023-04-01T10:49:38;10.70;99.90
51922;DHT22;37948;53.260;6.394;2023-04-01T10:55:20;10.70;99.90
51922;DHT22;37948;53.260;6.394;2023-04-01T10:58:19;10.70;99.90
51922;DHT22;37948;53.260;6.394;2023-04-01T11:09:59;10.50;99.90
51922;DHT22;37948;53.260;6.394;2023-04-01T11:13:06;10.50;99.90
51922;DHT22;37948;53.260;6.394;2023-04-01T11:34:57;10.30;99.90
51922;DHT22;37948;53.260;6.394;2023-04-01T11:40:31;10.30;99.90
51922;DHT22;37948;53.260;6.394;2023-04-01T11:45:37;10.20;99.90
51922;DHT22;37948;53.260;6.394;2023-04-01T11:48:23;10.30;99.90
51922;DHT22;37948;53.260;6.394;2023-04-01T11:53:54;10.40;99.90
51922;DHT22;37948;53.260;6.394;2023-04-01T12:02:35;10.40;99.90
51922;DHT22;37948;53.260;6.394;2023-04-01T12:05:29;10.50;99.90
51922;DHT22;37948;53.260;6.394;2023-04-01T12:08:15;10.50;99.90
51922;DHT22;37948;53.260;6.394;2023-04-01T12:11:24;10.50;99.90
51922;DHT22;37948;53.260;6.394;2023-04-01T12:19:04;10.60;99.90
51922;DHT22;37948;53.260;6.394;2023-04-01T12:24:41;10.60;99.90
51922;DHT22;37948;53.260;6.394;2023-04-01T12:27:22;10.70;99.90
51922;DHT22;37948;53.260;6.394;2023-04-01T12:29:59;10.80;99.90
51922;DHT22;37948;53.260;6.394;2023-04-01T12:46:25;10.80;99.90
51922;DHT22;37948;53.260;6.394;2023-04-01T12:52:10;10.90;99.90
51922;DHT22;37948;53.260;6.394;2023-04-01T13:00:25;10.90;99.90
51922;DHT22;37948;53.260;6.394;2023-04-01T13:03:28;10.90;99.90
51922;DHT22;37948;53.260;6.394;2023-04-01T13:14:15;10.70;99.90
51922;DHT22;37948;53.260;6.394;2023-04-01T13:19:36;10.60;99.90
51922;DHT22;37948;53.260;6.394;2023-04-01T13:25:13;10.50;99.90
51922;DHT22;37948;53.260;6.394;2023-04-01T13:27:44;10.50;99.90
51922;DHT22;37948;53.260;6.394;2023-04-01T13:30:27;10.50;99.90
51922;DHT22;37948;53.260;6.394;2023-04-01T13:33:13;10.50;99.90
51922;DHT22;37948;53.260;6.394;2023-04-01T13:41:15;10.50;99.90
51922;DHT22;37948;53.260;6.394;2023-04-01T13:44:09;10.50;99.90
51922;DHT22;37948;53.260;6.394;2023-04-01T13:52:08;10.40;99.90
51922;DHT22;37948;53.260;6.394;2023-04-01T13:55:26;10.50;99.90
51922;DHT22;37948;53.260;6.394;2023-04-01T14:00:51;10.40;99.90
51922;DHT22;37948;53.260;6.394;2023-04-01T14:06:28;10.30;99.90
51922;DHT22;37948;53.260;6.394;2023-04-01T14:14:44;10.30;99.90
51922;DHT22;37948;53.260;6.394;2023-04-01T14:20:01;10.10;99.90
51922;DHT22;37948;53.260;6.394;2023-04-01T14:33:47;9.90;99.90
51922;DHT22;37948;53.260;6.394;2023-04-01T14:39:48;9.80;99.90
51922;DHT22;37948;53.260;6.394;2023-04-01T14:42:36;9.70;99.90
51922;DHT22;37948;53.260;6.394;2023-04-01T14:45:33;9.70;99.90
51922;DHT22;37948;53.260;6.394;2023-04-01T14:48:36;9.70;99.90
51922;DHT22;37948;53.260;6.394;2023-04-01T14:51:30;9.70;99.90
51922;DHT22;37948;53.260;6.394;2023-04-01T14:56:44;9.70;99.90
51922;DHT22;37948;53.260;6.394;2023-04-01T15:02:14;9.60;99.90
51922;DHT22;37948;53.260;6.394;2023-04-01T15:07:33;9.50;99.90
51922;DHT22;37948;53.260;6.394;2023-04-01T15:12:53;9.30;99.90
51922;DHT22;37948;53.260;6.394;2023-04-01T15:18:09;9.20;99.90
51922;DHT22;37948;53.260;6.394;2023-04-01T15:26:05;9.10;99.90
51922;DHT22;37948;53.260;6.394;2023-04-01T15:31:19;9.10;99.90
51922;DHT22;37948;53.260;6.394;2023-04-01T15:39:38;9.00;99.90
51922;DHT22;37948;53.260;6.394;2023-04-01T15:47:46;8.90;99.90
51922;DHT22;37948;53.260;6.394;2023-04-01T15:50:28;8.80;99.90
51922;DHT22;37948;53.260;6.394;2023-04-01T15:53:30;8.80;99.90
51922;DHT22;37948;53.260;6.394;2023-04-01T15:59:20;8.70;99.90
51922;DHT22;37948;53.260;6.394;2023-04-01T16:05:30;8.60;99.90
51922;DHT22;37948;53.260;6.394;2023-04-01T16:08:40;8.60;99.90
51922;DHT22;37948;53.260;6.394;2023-04-01T16:11:32;8.50;99.90
51922;DHT22;37948;53.260;6.394;2023-04-01T16:14:11;8.50;99.90
51922;DHT22;37948;53.260;6.394;2023-04-01T16:17:04;8.40;99.90
51922;DHT22;37948;53.260;6.394;2023-04-01T16:19:41;8.40;99.90
51922;DHT22;37948;53.260;6.394;2023-04-01T16:24:51;8.40;99.90
51922;DHT22;37948;53.260;6.394;2023-04-01T16:36:24;8.30;99.90
51922;DHT22;37948;53.260;6.394;2023-04-01T16:41:38;8.10;99.90
51922;DHT22;37948;53.260;6.394;2023-04-01T16:46:43;8.10;99.90
51922;DHT22;37948;53.260;6.394;2023-04-01T16:54:44;8.00;99.90
51922;DHT22;37948;53.260;6.394;2023-04-01T16:57:18;7.90;99.90
51922;DHT22;37948;53.260;6.394;2023-04-01T17:02:14;7.90;99.90
51922;DHT22;37948;53.260;6.394;2023-04-01T17:04:57;7.90;99.90
51922;DHT22;37948;53.260;6.394;2023-04-01T17:13:23;7.80;99.90
51922;DHT22;37948;53.260;6.394;2023-04-01T17:16:20;7.80;99.90
51922;DHT22;37948;53.260;6.394;2023-04-01T17:18:58;7.80;99.90
51922;DHT22;37948;53.260;6.394;2023-04-01T17:21:47;7.80;99.90
51922;DHT22;37948;53.260;6.394;2023-04-01T17:36:03;7.70;99.90
51922;DHT22;37948;53.260;6.394;2023-04-01T17:41:47;7.60;99.90
51922;DHT22;37948;53.260;6.394;2023-04-01T17:44:49;7.60;99.90
51922;DHT22;37948;53.260;6.394;2023-04-01T17:58:46;7.40;99.90
51922;DHT22;37948;53.260;6.394;2023-04-01T18:01:20;7.40;99.90
51922;DHT22;37948;53.260;6.394;2023-04-01T18:04:23;7.30;99.90
51922;DHT22;37948;53.260;6.394;2023-04-01T18:10:12;7.30;99.90
51922;DHT22;37948;53.260;6.394;2023-04-01T18:16:11;7.30;99.90
51922;DHT22;37948;53.260;6.394;2023-04-01T18:21:47;7.20;99.90
51922;DHT22;37948;53.260;6.394;2023-04-01T18:24:33;7.20;99.90
51922;DHT22;37948;53.260;6.394;2023-04-01T18:27:03;7.20;99.90
51922;DHT22;37948;53.260;6.394;2023-04-01T18:29:46;7.20;99.90
51922;DHT22;37948;53.260;6.394;2023-04-01T18:32:51;7.10;99.90
51922;DHT22;37948;53.260;6.394;2023-04-01T18:35:21;7.10;99.90
51922;DHT22;37948;53.260;6.394;2023-04-01T18:40:39;7.10;99.90
51922;DHT22;37948;53.260;6.394;2023-04-01T18:48:40;7.10;99.90
51922;DHT22;37948;53.260;6.394;2023-04-01T18:51:20;7.00;99.90
51922;DHT22;37948;53.260;6.394;2023-04-01T19:15:49;6.80;99.90
51922;DHT22;37948;53.260;6.394;2023-04-01T19:29:40;6.70;99.90
51922;DHT22;37948;53.260;6.394;2023-04-01T19:32:14;6.70;99.90
51922;DHT22;37948;53.260;6.394;2023-04-01T19:46:56;6.60;99.90
51922;DHT22;37948;53.260;6.394;2023-04-01T19:49:16;6.60;99.90
51922;DHT22;37948;53.260;6.394;2023-04-01T19:51:58;6.60;99.90
51922;DHT22;37948;53.260;6.394;2023-04-01T19:54:57;6.60;99.90
51922;DHT22;37948;53.260;6.394;2023-04-01T20:00:30;6.50;99.90
51922;DHT22;37948;53.260;6.394;2023-04-01T20:06:18;6.50;99.90
51922;DHT22;37948;53.260;6.394;2023-04-01T20:14:34;6.40;99.90
51922;DHT22;37948;53.260;6.394;2023-04-01T20:17:23;6.40;99.90
51922;DHT22;37948;53.260;6.394;2023-04-01T20:28:09;6.40;99.90
51922;DHT22;37948;53.260;6.394;2023-04-01T20:33:31;6.40;99.90
51922;DHT22;37948;53.260;6.394;2023-04-01T20:36:23;6.40;99.90
51922;DHT22;37948;53.260;6.394;2023-04-01T20:39:15;6.40;99.90
51922;DHT22;37948;53.260;6.394;2023-04-01T20:42:10;6.30;99.90
51922;DHT22;37948;53.260;6.394;2023-04-01T20:50:59;6.20;99.90
51922;DHT22;37948;53.260;6.394;2023-04-01T20:53:42;6.30;99.90
51922;DHT22;37948;53.260;6.394;2023-04-01T21:04:22;6.30;99.90
51922;DHT22;37948;53.260;6.394;2023-04-01T21:07:08;6.30;99.90
51922;DHT22;37948;53.260;6.394;2023-04-01T21:28:28;6.10;99.90
51922;DHT22;37948;53.260;6.394;2023-04-01T21:31:01;6.10;99.90
51922;DHT22;37948;53.260;6.394;2023-04-01T21:47:22;6.00;99.90
51922;DHT22;37948;53.260;6.394;2023-04-01T21:52:42;6.00;99.90
51922;DHT22;37948;53.260;6.394;2023-04-01T22:04:08;5.90;99.90
51922;DHT22;37948;53.260;6.394;2023-04-01T22:06:56;5.80;99.90
51922;DHT22;37948;53.260;6.394;2023-04-01T22:09:39;5.80;99.90
51922;DHT22;37948;53.260;6.394;2023-04-01T22:15:11;5.80;99.90
51922;DHT22;37948;53.260;6.394;2023-04-01T22:17:54;5.80;99.90
51922;DHT22;37948;53.260;6.394;2023-04-01T22:21:09;5.80;99.90
51922;DHT22;37948;53.260;6.394;2023-04-01T22:24:01;5.70;99.90
51922;DHT22;37948;53.260;6.394;2023-04-01T22:27:03;5.70;99.90
51922;DHT22;37948;53.260;6.394;2023-04-01T22:29:38;5.70;99.90
51922;DHT22;37948;53.260;6.394;2023-04-01T22:32:21;5.70;99.90
51922;DHT22;37948;53.260;6.394;2023-04-01T22:35:18;5.70;99.90
51922;DHT22;37948;53.260;6.394;2023-04-01T22:37:58;5.60;99.90
51922;DHT22;37948;53.260;6.394;2023-04-01T22:43:11;5.60;99.90
51922;DHT22;37948;53.260;6.394;2023-04-01T22:48:22;5.40;99.90
51922;DHT22;37948;53.260;6.394;2023-04-01T22:53:52;5.30;99.90
51922;DHT22;37948;53.260;6.394;2023-04-01T22:56:37;5.20;99.90
51922;DHT22;37948;53.260;6.394;2023-04-01T22:59:26;5.20;99.90
51922;DHT22;37948;53.260;6.394;2023-04-01T23:02:06;5.10;99.90
51922;DHT22;37948;53.260;6.394;2023-04-01T23:04:39;5.10;99.90
51922;DHT22;37948;53.260;6.394;2023-04-01T23:10:04;5.10;99.90
51922;DHT22;37948;53.260;6.394;2023-04-01T23:12:32;5.00;99.90
51922;DHT22;37948;53.260;6.394;2023-04-01T23:15:00;5.10;99.90
51922;DHT22;37948;53.260;6.394;2023-04-01T23:17:47;5.00;99.90
51922;DHT22;37948;53.260;6.394;2023-04-01T23:23:19;4.90;99.90
51922;DHT22;37948;53.260;6.394;2023-04-01T23:26:29;4.90;99.90
51922;DHT22;37948;53.260;6.394;2023-04-01T23:28:56;4.80;99.90
51922;DHT22;37948;53.260;6.394;2023-04-01T23:31:31;4.80;99.90
51922;DHT22;37948;53.260;6.394;2023-04-01T23:34:21;4.70;99.90
51922;DHT22;37948;53.260;6.394;2023-04-01T23:36:50;4.70;99.90
51922;DHT22;37948;53.260;6.394;2023-04-01T23:39:29;4.70;99.90
51922;DHT22;37948;53.260;6.394;2023-04-01T23:44:49;4.60;99.90
51922;DHT22;37948;53.260;6.394;2023-04-01T23:47:21;4.60;99.90
51922;DHT22;37948;53.260;6.394;2023-04-01T23:49:51;4.50;99.90
51922;DHT22;37948;53.260;6.394;2023-04-01T23:52:27;4.50;99.90
51922;DHT22;37948;53.260;6.394;2023-04-01T23:57:30;4.40;99.90
